createdAt,value
2022-11-17T00:01:46.342Z,0.80
2022-11-17T00:04:15.228Z,0.85
2022-11-17T00:06:43.651Z,0.70
2022-11-17T00:09:19.253Z,0.90
2022-11-17T00:12:10.522Z,1.00
2022-11-17T00:14:41.568Z,0.85
2022-11-17T00:17:12.638Z,0.85
2022-11-17T00:19:59.977Z,0.80
2022-11-17T00:22:28.961Z,0.90
2022-11-17T00:24:57.899Z,1.25
2022-11-17T00:27:26.345Z,0.90
2022-11-17T00:29:55.293Z,0.88
2022-11-17T00:32:42.531Z,1.08
2022-11-17T00:35:11.232Z,0.85
2022-11-17T00:38:01.198Z,0.80
2022-11-17T00:40:30.074Z,0.80
2022-11-17T00:43:00.368Z,1.00
2022-11-17T00:45:28.822Z,0.80
2022-11-17T00:47:57.740Z,0.80
2022-11-17T00:50:26.193Z,0.90
2022-11-17T00:52:54.975Z,0.90
2022-11-17T00:55:24.644Z,1.00
2022-11-17T00:57:53.764Z,0.95
2022-11-17T01:00:22.782Z,0.90
2022-11-17T01:02:51.608Z,1.05
2022-11-17T01:05:20.532Z,0.93
2022-11-17T01:07:48.855Z,0.80
2022-11-17T01:10:17.480Z,0.80
2022-11-17T01:12:46.428Z,0.90
2022-11-17T01:15:15.000Z,0.88
2022-11-17T01:17:43.847Z,0.90
2022-11-17T01:20:13.077Z,0.80
2022-11-17T01:22:41.840Z,0.75
2022-11-17T01:25:10.819Z,0.80
2022-11-17T01:27:39.507Z,0.90
2022-11-17T01:30:09.045Z,0.90
2022-11-17T01:32:37.884Z,0.80
2022-11-17T01:35:07.855Z,0.70
2022-11-17T01:37:36.729Z,0.82
2022-11-17T01:40:06.210Z,0.80
2022-11-17T01:42:35.122Z,0.90
2022-11-17T01:45:05.294Z,1.17
2022-11-17T01:47:48.571Z,0.80
2022-11-17T01:50:40.409Z,1.00
2022-11-17T01:53:14.218Z,0.80
2022-11-17T01:55:47.586Z,0.70
2022-11-17T01:58:38.364Z,0.70
2022-11-17T02:01:07.871Z,0.77
2022-11-17T02:03:38.485Z,0.70
2022-11-17T02:06:26.279Z,0.85
2022-11-17T02:08:56.041Z,0.90
2022-11-17T02:11:24.550Z,0.90
2022-11-17T02:13:56.554Z,0.90
2022-11-17T02:16:25.359Z,0.90
2022-11-17T02:18:54.243Z,0.80
2022-11-17T02:21:53.448Z,0.85
2022-11-17T02:24:34.090Z,0.65
2022-11-17T02:27:23.942Z,0.90
2022-11-17T02:29:56.343Z,0.88
2022-11-17T02:32:32.154Z,0.90
2022-11-17T02:35:11.873Z,0.73
2022-11-17T02:37:54.003Z,1.00
2022-11-17T02:40:37.650Z,0.60
2022-11-17T02:43:30.775Z,0.90
2022-11-17T02:46:25.864Z,0.80
2022-11-17T02:49:01.220Z,1.00
2022-11-17T02:51:30.423Z,1.00
2022-11-17T02:54:01.205Z,0.95
2022-11-17T02:56:30.885Z,0.90
2022-11-17T02:59:03.193Z,0.70
2022-11-17T03:01:44.017Z,1.00
2022-11-17T03:04:34.060Z,0.80
2022-11-17T03:07:07.614Z,0.70
2022-11-17T03:09:37.540Z,0.80
2022-11-17T03:12:31.985Z,0.82
2022-11-17T03:15:05.516Z,0.80
2022-11-17T03:20:17.647Z,0.90
2022-11-17T03:23:13.116Z,1.00
2022-11-17T03:25:44.105Z,1.00
2022-11-17T03:28:13.954Z,0.98
2022-11-17T03:30:45.241Z,0.85
2022-11-17T03:33:18.638Z,0.80
2022-11-17T03:36:00.384Z,0.73
2022-11-17T03:38:31.741Z,1.10
2022-11-17T03:41:02.322Z,1.10
2022-11-17T03:43:34.002Z,1.40
2022-11-17T03:46:09.270Z,1.10
2022-11-17T03:49:00.145Z,1.15
2022-11-17T03:51:30.376Z,0.90
2022-11-17T03:53:59.515Z,0.70
2022-11-17T03:56:46.616Z,0.82
2022-11-17T03:59:15.445Z,0.82
2022-11-17T04:01:44.411Z,0.98
2022-11-17T04:04:21.179Z,0.60
2022-11-17T04:06:58.090Z,0.98
2022-11-17T04:09:27.088Z,1.08
2022-11-17T04:12:14.315Z,1.10
2022-11-17T04:15:15.214Z,0.90
2022-11-17T04:17:44.223Z,0.80
2022-11-17T04:20:13.249Z,0.82
2022-11-17T04:22:42.194Z,1.02
2022-11-17T04:25:11.332Z,1.00
2022-11-17T04:27:58.430Z,1.10
2022-11-17T04:30:27.136Z,0.90
2022-11-17T04:32:55.967Z,1.00
2022-11-17T04:35:24.853Z,0.80
2022-11-17T04:37:52.984Z,1.00
2022-11-17T04:40:21.431Z,0.77
2022-11-17T04:42:49.789Z,1.10
2022-11-17T04:45:18.593Z,0.90
2022-11-17T04:47:46.708Z,0.85
2022-11-17T04:50:16.629Z,0.80
2022-11-17T04:52:46.247Z,0.77
2022-11-17T04:55:15.265Z,1.05
2022-11-17T04:57:44.171Z,0.88
2022-11-17T05:00:13.493Z,1.10
2022-11-17T05:02:41.993Z,0.85
2022-11-17T05:05:11.115Z,0.80
2022-11-17T05:07:39.985Z,0.90
2022-11-17T05:10:09.017Z,0.80
2022-11-17T05:12:56.445Z,0.80
2022-11-17T05:15:44.751Z,0.80
2022-11-17T05:18:13.644Z,0.98
2022-11-17T05:20:42.493Z,1.00
2022-11-17T05:23:29.352Z,0.90
2022-11-17T05:25:58.299Z,0.90
2022-11-17T05:28:27.539Z,1.00
2022-11-17T05:30:56.204Z,1.02
2022-11-17T05:33:25.261Z,0.90
2022-11-17T05:35:54.138Z,0.85
2022-11-17T05:38:23.025Z,0.85
2022-11-17T05:40:51.867Z,0.93
2022-11-17T05:43:20.737Z,1.15
2022-11-17T05:45:49.945Z,1.10
2022-11-17T05:48:19.120Z,0.90
2022-11-17T05:50:48.146Z,1.20
2022-11-17T05:53:17.073Z,0.70
2022-11-17T05:55:45.901Z,0.90
2022-11-17T05:58:23.366Z,0.90
2022-11-17T06:00:53.930Z,0.85
2022-11-17T06:03:30.925Z,1.00
2022-11-17T06:05:59.651Z,0.88
2022-11-17T06:08:30.620Z,0.93
2022-11-17T06:10:59.508Z,0.90
2022-11-17T06:13:30.212Z,0.85
2022-11-17T06:16:00.328Z,0.80
2022-11-17T06:18:50.765Z,0.90
2022-11-17T06:21:19.693Z,0.93
2022-11-17T06:23:49.359Z,0.98
2022-11-17T06:26:18.520Z,1.02
2022-11-17T06:28:49.179Z,1.00
2022-11-17T06:31:18.734Z,0.90
2022-11-17T06:33:48.182Z,1.10
2022-11-17T06:36:17.185Z,1.30
2022-11-17T06:38:46.095Z,1.00
2022-11-17T06:41:15.052Z,1.20
2022-11-17T06:43:44.338Z,1.15
2022-11-17T06:46:12.519Z,1.27
2022-11-17T06:48:42.685Z,1.38
2022-11-17T06:51:12.575Z,1.08
2022-11-17T06:53:41.016Z,1.30
2022-11-17T06:56:10.375Z,1.15
2022-11-17T06:58:41.642Z,1.00
2022-11-17T07:01:16.397Z,1.30
2022-11-17T07:03:45.215Z,1.38
2022-11-17T07:06:14.614Z,1.35
2022-11-17T07:08:43.592Z,1.30
2022-11-17T07:11:15.311Z,1.40
2022-11-17T07:13:44.635Z,1.30
2022-11-17T07:16:23.272Z,1.30
2022-11-17T07:18:54.083Z,1.40
2022-11-17T07:21:24.098Z,1.60
2022-11-17T07:23:56.181Z,1.20
2022-11-17T07:26:25.270Z,1.50
2022-11-17T07:28:53.941Z,1.50
2022-11-17T07:31:22.748Z,1.60
2022-11-17T07:33:52.047Z,1.58
2022-11-17T07:36:21.278Z,1.50
2022-11-17T07:38:50.370Z,1.20
2022-11-17T07:41:19.176Z,1.25
2022-11-17T07:43:48.078Z,1.50
2022-11-17T07:46:17.359Z,1.30
2022-11-17T07:48:46.460Z,0.93
2022-11-17T07:51:15.848Z,1.80
2022-11-17T07:53:45.195Z,1.30
2022-11-17T07:56:14.448Z,1.23
2022-11-17T07:58:43.795Z,1.25
2022-11-17T08:01:18.456Z,1.33
2022-11-17T08:03:48.057Z,1.17
2022-11-17T08:06:18.621Z,1.25
2022-11-17T08:08:50.042Z,1.30
2022-11-17T08:11:20.545Z,1.38
2022-11-17T08:13:51.681Z,1.50
2022-11-17T08:16:20.809Z,1.40
2022-11-17T08:18:52.698Z,1.38
2022-11-17T08:21:22.015Z,1.13
2022-11-17T08:23:56.609Z,1.75
2022-11-17T08:26:26.562Z,1.40
2022-11-17T08:28:58.825Z,1.38
2022-11-17T08:31:28.042Z,1.30
2022-11-17T08:33:56.776Z,1.63
2022-11-17T08:36:25.901Z,1.70
2022-11-17T08:38:55.058Z,1.80
2022-11-17T08:41:24.176Z,1.65
2022-11-17T08:43:56.531Z,1.90
2022-11-17T08:46:27.361Z,1.77
2022-11-17T08:48:57.302Z,1.98
2022-11-17T08:51:26.820Z,1.55
2022-11-17T08:53:55.932Z,1.77
2022-11-17T08:56:25.677Z,1.83
2022-11-17T08:58:55.934Z,2.10
2022-11-17T09:01:24.956Z,1.90
2022-11-17T09:03:53.709Z,2.10
2022-11-17T09:06:22.613Z,1.75
2022-11-17T09:08:52.281Z,1.52
2022-11-17T09:11:22.464Z,1.70
2022-11-17T09:13:51.158Z,1.25
2022-11-17T09:16:20.085Z,1.20
2022-11-17T09:18:49.197Z,1.60
2022-11-17T09:21:18.675Z,1.50
2022-11-17T09:23:47.815Z,1.33
2022-11-17T09:26:18.400Z,1.33
2022-11-17T09:28:47.570Z,1.10
2022-11-17T09:31:22.532Z,1.10
2022-11-17T09:33:51.574Z,1.52
2022-11-17T09:36:20.759Z,1.27
2022-11-17T09:38:49.858Z,1.00
2022-11-17T09:41:18.775Z,1.17
2022-11-17T09:44:00.902Z,1.20
2022-11-17T09:46:44.003Z,1.40
2022-11-17T09:49:43.261Z,1.20
2022-11-17T09:52:21.533Z,1.00
2022-11-17T09:55:01.452Z,1.15
2022-11-17T09:57:47.627Z,1.10
2022-11-17T10:00:20.565Z,1.30
2022-11-17T10:02:49.220Z,1.30
2022-11-17T10:05:23.329Z,1.10
2022-11-17T10:07:53.414Z,1.17
2022-11-17T10:10:27.576Z,1.00
2022-11-17T10:12:59.853Z,1.25
2022-11-17T10:15:40.573Z,1.05
2022-11-17T10:18:19.041Z,1.33
2022-11-17T10:20:48.509Z,0.90
2022-11-17T10:23:20.196Z,0.88
2022-11-17T10:25:51.066Z,1.35
2022-11-17T10:28:32.330Z,1.10
2022-11-17T10:31:04.101Z,1.20
2022-11-17T10:33:45.088Z,0.98
2022-11-17T10:36:22.077Z,1.38
2022-11-17T10:38:53.778Z,1.13
2022-11-17T10:41:43.379Z,0.93
2022-11-17T10:44:15.506Z,1.00
2022-11-17T10:47:01.922Z,1.00
2022-11-17T10:49:36.399Z,1.10
2022-11-17T10:52:12.149Z,0.90
2022-11-17T10:54:40.900Z,1.10
2022-11-17T10:57:17.650Z,1.10
2022-11-17T10:59:59.060Z,1.00
2022-11-17T11:02:37.352Z,1.23
2022-11-17T11:05:15.019Z,1.13
2022-11-17T11:07:44.494Z,1.15
2022-11-17T11:10:25.566Z,1.23
2022-11-17T11:13:04.357Z,1.40
2022-11-17T11:15:38.242Z,1.50
2022-11-17T11:18:29.251Z,1.10
2022-11-17T11:21:17.950Z,1.40
2022-11-17T11:23:59.347Z,1.17
2022-11-17T11:26:54.074Z,0.93
2022-11-17T11:29:46.109Z,1.20
2022-11-17T11:32:38.527Z,1.00
2022-11-17T11:35:42.441Z,0.90
2022-11-17T11:38:23.176Z,0.90
2022-11-17T11:41:20.725Z,1.30
2022-11-17T11:44:28.582Z,1.00
2022-11-17T11:47:07.692Z,0.90
2022-11-17T11:50:06.737Z,0.95
2022-11-17T11:52:39.844Z,1.15
2022-11-17T11:55:37.924Z,1.00
2022-11-17T11:58:20.774Z,1.13
2022-11-17T12:00:51.940Z,0.90
2022-11-17T12:03:28.111Z,0.95
2022-11-17T12:06:22.892Z,0.95
2022-11-17T12:09:03.661Z,0.90
2022-11-17T12:11:52.143Z,1.40
2022-11-17T12:14:21.521Z,1.15
2022-11-17T12:16:50.732Z,0.90
2022-11-17T12:19:57.135Z,1.38
2022-11-17T12:22:47.044Z,0.98
2022-11-17T12:25:19.266Z,1.10
2022-11-17T12:27:51.586Z,1.20
2022-11-17T12:30:35.534Z,1.10
2022-11-17T12:33:09.009Z,1.00
2022-11-17T12:38:18.595Z,0.90
2022-11-17T12:40:54.373Z,0.90
2022-11-17T12:43:31.322Z,1.00
2022-11-17T12:46:17.894Z,1.30
2022-11-17T12:49:09.325Z,0.90
2022-11-17T12:51:44.882Z,1.27
2022-11-17T12:54:23.835Z,1.15
2022-11-17T12:57:05.798Z,1.00
2022-11-17T12:59:54.307Z,1.10
2022-11-17T13:02:54.879Z,0.80
2022-11-17T13:05:27.685Z,0.98
2022-11-17T13:08:18.271Z,0.80
2022-11-17T13:10:47.235Z,1.33
2022-11-17T13:13:20.967Z,1.15
2022-11-17T13:15:58.122Z,1.05
2022-11-17T13:18:37.887Z,0.90
2022-11-17T13:21:17.285Z,1.10
2022-11-17T13:23:46.989Z,1.15
2022-11-17T13:26:18.837Z,1.08
2022-11-17T13:28:48.535Z,0.70
2022-11-17T13:31:22.725Z,0.98
2022-11-17T13:34:19.066Z,0.90
2022-11-17T13:37:01.764Z,0.98
2022-11-17T13:39:31.015Z,1.20
2022-11-17T13:42:00.745Z,1.45
2022-11-17T13:44:30.128Z,1.10
2022-11-17T13:46:59.112Z,1.50
2022-11-17T13:49:40.908Z,1.25
2022-11-17T13:52:43.568Z,1.20
2022-11-17T13:55:21.683Z,1.08
2022-11-17T13:58:26.541Z,1.00
2022-11-17T14:01:01.199Z,0.95
2022-11-17T14:03:44.188Z,1.10
2022-11-17T14:06:14.841Z,1.02
2022-11-17T14:08:45.122Z,1.10
2022-11-17T14:11:14.067Z,1.08
2022-11-17T14:14:00.553Z,1.02
2022-11-17T14:16:32.742Z,0.95
2022-11-17T14:19:16.435Z,1.00
2022-11-17T14:22:06.245Z,1.08
2022-11-17T14:24:35.241Z,0.80
2022-11-17T14:27:05.251Z,1.02
2022-11-17T14:29:34.299Z,1.38
2022-11-17T14:32:03.389Z,1.33
2022-11-17T14:34:32.402Z,1.42
2022-11-17T14:37:01.428Z,0.95
2022-11-17T14:39:30.558Z,1.25
2022-11-17T14:41:59.236Z,1.10
2022-11-17T14:44:28.345Z,1.05
2022-11-17T14:46:57.335Z,1.13
2022-11-17T14:49:26.240Z,0.90
2022-11-17T14:51:56.850Z,1.17
2022-11-17T14:54:25.993Z,1.25
2022-11-17T14:56:55.544Z,1.10
2022-11-17T14:59:24.439Z,1.60
2022-11-17T15:01:53.012Z,1.17
2022-11-17T15:04:48.802Z,1.10
2022-11-17T15:07:11.095Z,1.17
2022-11-17T15:09:40.138Z,1.42
2022-11-17T15:12:10.556Z,1.05
2022-11-17T15:14:39.039Z,1.10
2022-11-17T15:17:11.251Z,1.20
2022-11-17T15:19:43.167Z,1.35
2022-11-17T15:22:12.187Z,1.35
2022-11-17T15:24:41.169Z,1.20
2022-11-17T15:27:10.587Z,1.35
2022-11-17T15:29:39.279Z,1.67
2022-11-17T15:32:09.274Z,1.33
2022-11-17T15:34:38.678Z,1.50
2022-11-17T15:37:08.444Z,1.20
2022-11-17T15:39:37.756Z,1.08
2022-11-17T15:42:07.515Z,2.25
2022-11-17T15:44:36.587Z,1.00
2022-11-17T15:47:05.563Z,1.30
2022-11-17T15:49:34.488Z,1.23
2022-11-17T15:52:03.502Z,1.25
2022-11-17T15:54:32.350Z,1.25
2022-11-17T15:57:03.119Z,1.55
2022-11-17T15:59:34.998Z,1.33
2022-11-17T16:02:10.658Z,1.20
2022-11-17T16:04:39.707Z,1.23
2022-11-17T16:07:08.635Z,1.73
2022-11-17T16:09:37.322Z,1.20
2022-11-17T16:12:06.430Z,1.63
2022-11-17T16:14:35.209Z,2.15
2022-11-17T16:17:04.201Z,2.22
2022-11-17T16:19:33.154Z,1.67
2022-11-17T16:22:02.078Z,1.50
2022-11-17T16:24:31.072Z,1.55
2022-11-17T16:26:59.624Z,1.73
2022-11-17T16:29:28.674Z,1.40
2022-11-17T16:31:57.334Z,1.50
2022-11-17T16:34:27.838Z,1.63
2022-11-17T16:36:56.732Z,1.77
2022-11-17T16:39:25.753Z,1.80
2022-11-17T16:41:56.050Z,1.73
2022-11-17T16:44:24.639Z,1.77
2022-11-17T16:46:53.610Z,1.63
2022-11-17T16:49:22.724Z,1.70
2022-11-17T16:51:53.464Z,1.77
2022-11-17T16:54:22.679Z,1.73
2022-11-17T16:56:53.327Z,2.28
2022-11-17T16:59:23.338Z,2.25
2022-11-17T17:01:53.063Z,2.00
2022-11-17T17:04:22.048Z,1.60
2022-11-17T17:06:50.834Z,2.15
2022-11-17T17:09:24.922Z,2.10
2022-11-17T17:11:56.654Z,2.53
2022-11-17T17:14:25.780Z,2.45
2022-11-17T17:16:54.686Z,2.63
2022-11-17T17:19:23.773Z,2.65
2022-11-17T17:21:52.116Z,2.72
2022-11-17T17:24:21.016Z,3.20
2022-11-17T17:26:49.938Z,2.25
2022-11-17T17:29:19.075Z,2.53
2022-11-17T17:31:48.535Z,2.63
2022-11-17T17:34:17.633Z,2.80
2022-11-17T17:36:46.528Z,2.75
2022-11-17T17:39:19.363Z,3.55
2022-11-17T17:41:48.466Z,3.35
2022-11-17T17:44:21.324Z,2.80
2022-11-17T17:46:50.712Z,3.28
2022-11-17T17:49:20.513Z,2.97
2022-11-17T17:51:49.510Z,3.08
2022-11-17T17:54:21.596Z,3.47
2022-11-17T17:56:52.048Z,3.40
2022-11-17T17:59:21.088Z,3.47
2022-11-17T18:01:51.106Z,3.40
2022-11-17T18:04:20.263Z,3.03
2022-11-17T18:06:49.916Z,3.40
2022-11-17T18:09:22.295Z,3.40
2022-11-17T18:11:51.905Z,3.05
2022-11-17T18:14:25.479Z,2.88
2022-11-17T18:19:28.442Z,3.00
2022-11-17T18:22:00.548Z,3.30
2022-11-17T18:24:29.734Z,3.08
2022-11-17T18:26:58.627Z,3.88
2022-11-17T18:29:27.432Z,2.97
2022-11-17T18:31:56.558Z,3.13
2022-11-17T18:34:27.247Z,3.00
2022-11-17T18:36:58.368Z,2.70
2022-11-17T18:39:29.020Z,2.80
2022-11-17T18:41:57.697Z,3.03
2022-11-17T18:44:26.222Z,3.25
2022-11-17T18:47:01.241Z,3.28
2022-11-17T18:49:32.232Z,3.38
2022-11-17T18:52:01.246Z,3.42
2022-11-17T18:54:30.338Z,3.13
2022-11-17T18:57:01.617Z,3.05
2022-11-17T18:59:30.721Z,2.70
2022-11-17T19:01:59.640Z,3.15
2022-11-17T19:04:28.708Z,3.00
2022-11-17T19:06:57.247Z,2.95
2022-11-17T19:09:26.191Z,3.00
2022-11-17T19:11:55.362Z,3.58
2022-11-17T19:14:24.490Z,2.95
2022-11-17T19:16:53.200Z,2.70
2022-11-17T19:19:22.238Z,2.92
2022-11-17T19:21:50.917Z,3.30
2022-11-17T19:24:19.466Z,2.72
2022-11-17T19:26:49.181Z,3.45
2022-11-17T19:29:18.280Z,3.72
2022-11-17T19:31:49.534Z,3.20
2022-11-17T19:34:18.587Z,3.00
2022-11-17T19:36:47.865Z,3.22
2022-11-17T19:39:18.750Z,3.25
2022-11-17T19:41:49.160Z,2.85
2022-11-17T19:44:18.256Z,3.20
2022-11-17T19:46:47.423Z,2.83
2022-11-17T19:49:17.654Z,3.53
2022-11-17T19:51:46.845Z,2.75
2022-11-17T19:54:15.889Z,3.58
2022-11-17T19:56:45.524Z,3.22
2022-11-17T19:59:16.629Z,2.53
2022-11-17T20:01:46.565Z,3.70
2022-11-17T20:04:15.551Z,3.28
2022-11-17T20:06:44.029Z,3.72
2022-11-17T20:09:15.821Z,2.78
2022-11-17T20:11:45.197Z,2.90
2022-11-17T20:14:16.012Z,3.20
2022-11-17T20:16:44.895Z,3.03
2022-11-17T20:19:15.119Z,3.30
2022-11-17T20:21:43.740Z,3.30
2022-11-17T20:24:12.866Z,3.35
2022-11-17T20:26:44.036Z,3.10
2022-11-17T20:29:13.189Z,3.38
2022-11-17T20:31:43.110Z,3.88
2022-11-17T20:34:14.132Z,3.00
2022-11-17T20:36:43.037Z,3.30
2022-11-17T20:39:12.765Z,3.10
2022-11-17T20:41:41.857Z,2.88
2022-11-17T20:44:25.283Z,2.92
2022-11-17T20:46:56.678Z,3.10
2022-11-17T20:49:26.364Z,2.90
2022-11-17T20:51:55.228Z,3.05
2022-11-17T20:54:25.631Z,2.65
2022-11-17T20:56:55.211Z,2.88
2022-11-17T20:59:24.735Z,3.35
2022-11-17T21:01:53.850Z,3.30
2022-11-17T21:04:23.896Z,3.13
2022-11-17T21:06:53.314Z,3.85
2022-11-17T21:09:23.689Z,3.35
2022-11-17T21:11:58.598Z,3.10
2022-11-17T21:14:28.826Z,3.30
2022-11-17T21:16:59.189Z,3.00
2022-11-17T21:19:29.036Z,3.10
2022-11-17T21:21:58.077Z,3.30
2022-11-17T21:24:27.570Z,2.78
2022-11-17T21:26:56.630Z,3.53
2022-11-17T21:29:25.639Z,3.30
2022-11-17T21:31:54.705Z,3.20
2022-11-17T21:34:23.646Z,3.20
2022-11-17T21:36:52.799Z,3.30
2022-11-17T21:39:22.889Z,3.47
2022-11-17T21:41:51.411Z,3.20
2022-11-17T21:44:20.502Z,3.15
2022-11-17T21:46:49.664Z,3.60
2022-11-17T21:49:18.908Z,3.58
2022-11-17T21:51:47.923Z,3.22
2022-11-17T21:54:16.855Z,3.65
2022-11-17T21:56:47.277Z,3.25
2022-11-17T21:59:18.183Z,3.55
2022-11-17T22:01:47.555Z,3.22
2022-11-17T22:04:17.335Z,3.40
2022-11-17T22:06:46.431Z,3.30
2022-11-17T22:09:15.731Z,3.63
2022-11-17T22:11:44.968Z,3.83
2022-11-17T22:14:17.466Z,3.58
2022-11-17T22:16:50.874Z,3.65
2022-11-17T22:19:21.340Z,3.67
2022-11-17T22:21:52.347Z,3.70
2022-11-17T22:24:21.892Z,3.58
2022-11-17T22:26:52.917Z,3.45
2022-11-17T22:29:23.293Z,3.40
2022-11-17T22:31:52.872Z,3.65
2022-11-17T22:34:21.851Z,3.17
2022-11-17T22:36:50.502Z,3.80
2022-11-17T22:39:20.454Z,3.40
2022-11-17T22:41:49.566Z,3.10
2022-11-17T22:44:18.868Z,3.53
2022-11-17T22:46:47.707Z,3.40
2022-11-17T22:49:16.877Z,3.70
2022-11-17T22:52:04.267Z,2.97
2022-11-17T22:54:33.368Z,3.00
2022-11-17T22:57:03.063Z,3.00
2022-11-17T22:59:31.747Z,3.28
2022-11-17T23:02:00.785Z,3.40
2022-11-17T23:04:29.954Z,3.50
2022-11-17T23:06:58.906Z,3.45
2022-11-17T23:09:27.425Z,3.47
2022-11-17T23:11:56.434Z,3.05
2022-11-17T23:14:25.279Z,3.42
2022-11-17T23:16:54.280Z,3.72
2022-11-17T23:19:23.576Z,3.47
2022-11-17T23:21:52.522Z,3.65
2022-11-17T23:24:22.466Z,3.08
2022-11-17T23:26:51.633Z,3.17
2022-11-17T23:29:19.965Z,3.63
2022-11-17T23:31:49.010Z,3.80
2022-11-17T23:34:17.832Z,3.47
2022-11-17T23:36:46.465Z,3.00
2022-11-17T23:39:15.562Z,3.30
2022-11-17T23:41:44.309Z,3.35
2022-11-17T23:44:13.310Z,3.60
2022-11-17T23:46:42.386Z,4.30
2022-11-17T23:49:11.579Z,3.38
2022-11-17T23:51:40.699Z,3.60
2022-11-17T23:54:09.168Z,3.30
2022-11-17T23:56:38.306Z,3.15
2022-11-17T23:59:08.445Z,3.20
